createdAt,value
2019-03-04T00:00:36.793Z,98839.77
2019-03-04T00:01:16.199Z,98834.13
2019-03-04T00:01:53.741Z,98828.41
2019-03-04T00:02:29.684Z,98829.23
2019-03-04T00:03:05.950Z,98836.42
2019-03-04T00:03:41.405Z,98828.13
2019-03-04T00:04:16.830Z,98822.77
2019-03-04T00:04:52.255Z,98818.78
2019-03-04T00:05:27.925Z,98818.78
2019-03-04T00:06:03.417Z,98830.89
2019-03-04T00:06:39.102Z,98823.69
2019-03-04T00:07:14.574Z,98823.69
2019-03-04T00:07:50.093Z,98825.16
2019-03-04T00:08:25.710Z,98835.05
2019-03-04T00:09:01.418Z,98828.13
2019-03-04T00:09:37.013Z,98833.74
2019-03-04T00:10:12.401Z,98824.59
2019-03-04T00:10:47.835Z,98833.74
2019-03-04T00:11:23.497Z,98820.80
2019-03-04T00:11:58.899Z,98823.36
2019-03-04T00:12:34.914Z,98813.09
2019-03-04T00:13:10.571Z,98815.53
2019-03-04T00:13:46.195Z,98811.55
2019-03-04T00:14:21.607Z,98822.99
2019-03-04T00:14:57.009Z,98824.94
2019-03-04T00:15:32.811Z,98815.81
2019-03-04T00:16:08.205Z,98815.04
2019-03-04T00:16:43.889Z,98819.30
2019-03-04T00:17:19.392Z,98813.84
2019-03-04T00:17:54.865Z,98813.84
2019-03-04T00:18:30.408Z,98818.31
2019-03-04T00:19:05.960Z,98815.36
2019-03-04T00:19:41.349Z,98813.11
2019-03-04T00:20:16.738Z,98811.59
2019-03-04T00:20:52.145Z,98810.79
2019-03-04T00:21:27.864Z,98811.63
2019-03-04T00:22:03.370Z,98814.13
2019-03-04T00:22:39.045Z,98814.13
2019-03-04T00:23:14.683Z,98814.41
2019-03-04T00:23:50.631Z,98810.39
2019-03-04T00:24:26.258Z,98803.18
2019-03-04T00:25:01.963Z,98798.37
2019-03-04T00:25:37.666Z,98793.09
2019-03-04T00:26:13.312Z,98796.48
2019-03-04T00:26:48.716Z,98788.56
2019-03-04T00:27:24.130Z,98798.64
2019-03-04T00:27:59.875Z,98793.19
2019-03-04T00:28:35.642Z,98799.20
2019-03-04T00:29:11.315Z,98792.97
2019-03-04T00:29:46.957Z,98790.01
2019-03-04T00:30:22.949Z,98791.58
2019-03-04T00:30:58.506Z,98791.67
2019-03-04T00:31:34.691Z,98789.17
2019-03-04T00:32:10.324Z,98789.91
2019-03-04T00:32:45.717Z,98784.83
2019-03-04T00:33:21.442Z,98791.67
2019-03-04T00:33:56.839Z,98806.66
2019-03-04T00:34:32.315Z,98782.33
2019-03-04T00:35:08.052Z,98783.72
2019-03-04T00:35:43.790Z,98787.10
2019-03-04T00:36:19.176Z,98796.45
2019-03-04T00:36:54.640Z,98785.84
2019-03-04T00:37:30.390Z,98789.82
2019-03-04T00:38:06.174Z,98792.23
2019-03-04T00:38:41.602Z,98788.80
2019-03-04T00:39:17.126Z,98788.80
2019-03-04T00:39:53.350Z,98785.62
2019-03-04T00:40:28.876Z,98786.58
2019-03-04T00:41:04.406Z,98780.44
2019-03-04T00:41:39.828Z,98790.56
2019-03-04T00:42:15.479Z,98782.98
2019-03-04T00:42:50.906Z,98782.98
2019-03-04T00:43:26.327Z,98781.49
2019-03-04T00:44:01.787Z,98792.01
2019-03-04T00:44:37.604Z,98769.66
2019-03-04T00:45:13.201Z,98783.81
2019-03-04T00:45:48.879Z,98779.19
2019-03-04T00:46:24.271Z,98785.56
2019-03-04T00:46:59.683Z,98771.16
2019-03-04T00:47:35.221Z,98782.88
2019-03-04T00:48:10.661Z,98785.94
2019-03-04T00:48:46.082Z,98777.61
2019-03-04T00:49:21.465Z,98772.42
2019-03-04T00:49:57.106Z,98778.69
2019-03-04T00:50:32.655Z,98785.07
2019-03-04T00:51:08.436Z,98780.53
2019-03-04T00:51:43.821Z,98780.25
2019-03-04T00:52:19.217Z,98782.33
2019-03-04T00:52:54.697Z,98782.33
2019-03-04T00:53:30.311Z,98779.84
2019-03-04T00:54:06.077Z,98777.25
2019-03-04T00:54:41.483Z,98766.19
2019-03-04T00:55:18.271Z,98770.31
2019-03-04T00:55:53.679Z,98763.41
2019-03-04T00:56:29.140Z,98762.98
2019-03-04T00:57:04.624Z,98767.39
2019-03-04T00:57:40.779Z,98767.39
2019-03-04T00:58:16.182Z,98775.53
2019-03-04T00:58:51.568Z,98781.98
2019-03-04T00:59:26.962Z,98771.55
2019-03-04T01:00:02.698Z,98763.88
2019-03-04T01:00:38.276Z,98763.88
2019-03-04T01:01:13.667Z,98763.41
2019-03-04T01:01:49.386Z,98766.47
2019-03-04T01:02:25.029Z,98764.39
2019-03-04T01:03:00.462Z,98755.82
2019-03-04T01:03:36.507Z,98755.08
2019-03-04T01:04:11.913Z,98751.19
2019-03-04T01:04:47.404Z,98753.36
2019-03-04T01:05:22.925Z,98751.84
2019-03-04T01:05:58.338Z,98752.48
2019-03-04T01:06:33.810Z,98749.81
2019-03-04T01:07:09.785Z,98749.81
2019-03-04T01:07:45.803Z,98750.09
2019-03-04T01:08:21.486Z,98750.09
2019-03-04T01:08:56.867Z,98745.00
2019-03-04T01:09:32.297Z,98748.42
2019-03-04T01:10:08.443Z,98755.91
2019-03-04T01:10:44.086Z,98752.95
2019-03-04T01:11:19.482Z,98750.45
2019-03-04T01:11:54.883Z,98753.60
2019-03-04T01:12:30.313Z,98763.81
2019-03-04T01:13:05.736Z,98763.81
2019-03-04T01:13:41.534Z,98765.02
2019-03-04T01:14:16.956Z,98768.54
2019-03-04T01:14:52.602Z,98771.12
2019-03-04T01:15:28.551Z,98776.37
2019-03-04T01:16:03.963Z,98776.37
2019-03-04T01:16:39.346Z,98769.52
2019-03-04T01:17:14.740Z,98767.48
2019-03-04T01:17:50.159Z,98773.72
2019-03-04T01:18:25.588Z,98776.03
2019-03-04T01:19:01.086Z,98770.30
2019-03-04T01:19:36.802Z,98768.81
2019-03-04T01:20:13.983Z,98767.38
2019-03-04T01:20:49.379Z,98775.30
2019-03-04T01:21:24.790Z,98769.69
2019-03-04T01:22:00.338Z,98764.97
2019-03-04T01:22:35.797Z,98765.00
2019-03-04T01:23:11.483Z,98757.69
2019-03-04T01:23:46.863Z,98763.24
2019-03-04T01:24:22.276Z,98752.42
2019-03-04T01:24:57.649Z,98761.02
2019-03-04T01:25:33.206Z,98761.02
2019-03-04T01:26:08.917Z,98757.05
2019-03-04T01:26:44.327Z,98756.48
2019-03-04T01:27:19.746Z,98761.67
2019-03-04T01:27:55.160Z,98756.77
2019-03-04T01:28:30.943Z,98755.66
2019-03-04T01:29:06.387Z,98761.02
2019-03-04T01:29:41.775Z,98760.96
2019-03-04T01:30:19.180Z,98756.24
2019-03-04T01:30:54.573Z,98756.48
2019-03-04T01:31:30.010Z,98755.41
2019-03-04T01:32:05.417Z,98755.88
2019-03-04T01:32:40.833Z,98759.20
2019-03-04T01:33:16.334Z,98762.88
2019-03-04T01:33:51.713Z,98758.84
2019-03-04T01:34:27.126Z,98758.84
2019-03-04T01:35:03.107Z,98756.58
2019-03-04T01:35:38.538Z,98750.02
2019-03-04T01:36:13.948Z,98754.39
2019-03-04T01:36:49.621Z,98761.77
2019-03-04T01:37:25.318Z,98752.73
2019-03-04T01:38:01.021Z,98745.20
2019-03-04T01:38:36.759Z,98756.12
2019-03-04T01:39:12.166Z,98746.46
2019-03-04T01:39:47.837Z,98742.48
2019-03-04T01:40:23.509Z,98742.48
2019-03-04T01:40:58.951Z,98747.11
2019-03-04T01:41:34.672Z,98742.91
2019-03-04T01:42:10.065Z,98749.98
2019-03-04T01:42:45.476Z,98737.27
2019-03-04T01:43:21.145Z,98737.27
2019-03-04T01:43:57.247Z,98742.36
2019-03-04T01:44:32.979Z,98746.66
2019-03-04T01:45:09.700Z,98743.74
2019-03-04T01:45:45.359Z,98743.74
2019-03-04T01:46:20.741Z,98743.96
2019-03-04T01:46:56.420Z,98750.44
2019-03-04T01:47:32.150Z,98745.69
2019-03-04T01:48:07.836Z,98747.48
2019-03-04T01:48:43.221Z,98749.14
2019-03-04T01:49:18.614Z,98749.14
2019-03-04T01:49:54.041Z,98747.53
2019-03-04T01:50:29.736Z,98752.81
2019-03-04T01:51:05.493Z,98754.14
2019-03-04T01:51:41.491Z,98747.11
2019-03-04T01:52:16.943Z,98747.52
2019-03-04T01:52:53.044Z,98747.23
2019-03-04T01:53:28.524Z,98745.81
2019-03-04T01:54:04.029Z,98746.46
2019-03-04T01:54:39.434Z,98741.56
2019-03-04T01:55:16.049Z,98739.70
2019-03-04T01:55:51.485Z,98738.14
2019-03-04T01:56:27.229Z,98746.80
2019-03-04T01:57:02.678Z,98745.04
2019-03-04T01:57:38.091Z,98737.12
2019-03-04T01:58:13.533Z,98741.75
2019-03-04T01:58:49.194Z,98741.56
2019-03-04T01:59:24.590Z,98741.83
2019-03-04T02:00:00.028Z,98741.47
2019-03-04T02:00:35.694Z,98741.47
2019-03-04T02:01:11.128Z,98739.98
2019-03-04T02:01:46.842Z,98737.71
2019-03-04T02:02:22.769Z,98728.73
2019-03-04T02:02:58.341Z,98737.77
2019-03-04T02:03:34.043Z,98737.77
2019-03-04T02:04:09.708Z,98743.03
2019-03-04T02:04:45.099Z,98738.78
2019-03-04T02:05:21.124Z,98729.81
2019-03-04T02:05:56.843Z,98733.84
2019-03-04T02:06:32.426Z,98737.36
2019-03-04T02:07:08.093Z,98732.67
2019-03-04T02:07:43.626Z,98728.79
2019-03-04T02:08:19.060Z,98729.81
2019-03-04T02:08:54.453Z,98726.75
2019-03-04T02:09:30.180Z,98730.05
2019-03-04T02:10:06.602Z,98741.33
2019-03-04T02:10:42.247Z,98722.97
2019-03-04T02:11:18.219Z,98731.44
2019-03-04T02:11:53.612Z,98724.77
2019-03-04T02:12:29.086Z,98728.42
2019-03-04T02:13:04.784Z,98729.07
2019-03-04T02:13:40.288Z,98727.22
2019-03-04T02:14:15.983Z,98732.18
2019-03-04T02:14:51.375Z,98718.72
2019-03-04T02:15:26.768Z,98721.26
2019-03-04T02:16:02.474Z,98721.26
2019-03-04T02:16:37.899Z,98725.89
2019-03-04T02:17:13.540Z,98725.06
2019-03-04T02:17:49.058Z,98721.31
2019-03-04T02:18:25.009Z,98720.34
2019-03-04T02:19:00.434Z,98719.78
2019-03-04T02:19:35.890Z,98717.05
2019-03-04T02:20:12.141Z,98717.05
2019-03-04T02:20:48.428Z,98712.52
2019-03-04T02:21:23.853Z,98710.47
2019-03-04T02:21:59.541Z,98708.44
2019-03-04T02:22:34.974Z,98708.44
2019-03-04T02:23:10.402Z,98720.70
2019-03-04T02:23:46.032Z,98719.83
2019-03-04T02:24:27.998Z,98719.91
2019-03-04T02:25:03.430Z,98711.67
2019-03-04T02:26:14.806Z,98715.70
2019-03-04T02:26:50.187Z,98724.31
2019-03-04T02:27:25.829Z,98713.52
2019-03-04T02:28:01.254Z,98719.53
2019-03-04T02:28:37.306Z,98714.21
2019-03-04T02:29:12.689Z,98702.59
2019-03-04T02:29:48.092Z,98702.59
2019-03-04T02:30:25.707Z,98706.53
2019-03-04T02:31:01.144Z,98700.32
2019-03-04T02:31:36.601Z,98700.32
2019-03-04T02:32:12.534Z,98708.02
2019-03-04T02:32:47.925Z,98719.44
2019-03-04T02:33:23.966Z,98706.06
2019-03-04T02:33:59.702Z,98702.12
2019-03-04T02:34:35.373Z,98699.64
2019-03-04T02:35:11.006Z,98707.41
2019-03-04T02:35:46.389Z,98708.66
2019-03-04T02:36:21.800Z,98691.71
2019-03-04T02:36:57.491Z,98699.02
2019-03-04T02:37:33.230Z,98689.26
2019-03-04T02:38:08.744Z,98689.26
2019-03-04T02:38:44.127Z,98688.84
2019-03-04T02:39:19.602Z,98685.31
2019-03-04T02:39:55.010Z,98688.52
2019-03-04T02:40:30.723Z,98673.41
2019-03-04T02:41:06.183Z,98666.30
2019-03-04T02:41:41.578Z,98665.05
2019-03-04T02:42:17.231Z,98681.24
2019-03-04T02:42:52.949Z,98659.02
2019-03-04T02:43:28.444Z,98663.70
2019-03-04T02:44:04.258Z,98666.16
2019-03-04T02:44:39.715Z,98654.48
2019-03-04T02:45:17.485Z,98654.42
2019-03-04T02:45:53.146Z,98654.42
2019-03-04T02:46:28.904Z,98645.66
2019-03-04T02:47:04.368Z,98642.86
2019-03-04T02:47:40.039Z,98643.69
2019-03-04T02:48:15.427Z,98636.28
2019-03-04T02:48:50.918Z,98636.28
2019-03-04T02:49:26.390Z,98642.77
2019-03-04T02:50:01.839Z,98633.42
2019-03-04T02:50:37.337Z,98633.42
2019-03-04T02:51:13.122Z,98640.88
2019-03-04T02:51:48.747Z,98631.70
2019-03-04T02:52:24.153Z,98631.70
2019-03-04T02:52:59.578Z,98625.21
2019-03-04T02:53:35.573Z,98626.84
2019-03-04T02:54:10.982Z,98626.84
2019-03-04T02:54:46.679Z,98613.08
2019-03-04T02:55:22.100Z,98616.61
2019-03-04T02:55:57.785Z,98618.63
2019-03-04T02:56:33.247Z,98618.43
2019-03-04T02:57:08.665Z,98638.47
2019-03-04T02:57:44.313Z,98632.59
2019-03-04T02:58:19.991Z,98628.97
2019-03-04T02:58:55.654Z,98622.55
2019-03-04T02:59:31.233Z,98624.91
2019-03-04T03:00:08.405Z,98619.89
2019-03-04T03:00:43.821Z,98619.52
2019-03-04T03:01:19.226Z,98625.61
2019-03-04T03:01:54.622Z,98626.73
2019-03-04T03:02:30.116Z,98624.11
2019-03-04T03:03:05.507Z,98620.05
2019-03-04T03:03:40.905Z,98628.71
2019-03-04T03:04:16.579Z,98628.71
2019-03-04T03:04:52.238Z,98627.64
2019-03-04T03:05:27.619Z,98619.55
2019-03-04T03:06:03.344Z,98623.33
2019-03-04T03:06:39.055Z,98609.91
2019-03-04T03:07:14.723Z,98616.66
2019-03-04T03:07:50.118Z,98602.87
2019-03-04T03:08:25.511Z,98603.27
2019-03-04T03:09:00.929Z,98601.44
2019-03-04T03:09:36.715Z,98582.67
2019-03-04T03:10:12.307Z,98582.67
2019-03-04T03:10:47.712Z,98579.61
2019-03-04T03:11:23.348Z,98585.27
2019-03-04T03:11:58.782Z,98572.17
2019-03-04T03:12:34.316Z,98563.53
2019-03-04T03:13:09.961Z,98550.04
2019-03-04T03:13:45.358Z,98538.41
2019-03-04T03:14:20.754Z,98531.27
2019-03-04T03:14:56.139Z,98522.40
2019-03-04T03:15:31.567Z,98512.47
2019-03-04T03:16:07.267Z,98502.64
2019-03-04T03:16:42.684Z,98490.38
2019-03-04T03:17:18.086Z,98479.78
2019-03-04T03:17:53.731Z,98478.36
2019-03-04T03:18:29.416Z,98476.83
2019-03-04T03:19:05.083Z,98472.64
2019-03-04T03:19:40.805Z,98473.88
2019-03-04T03:20:16.309Z,98461.15
2019-03-04T03:20:51.712Z,98453.87
2019-03-04T03:21:27.124Z,98453.28
2019-03-04T03:22:02.659Z,98459.98
2019-03-04T03:22:38.079Z,98452.27
2019-03-04T03:23:13.461Z,98445.73
2019-03-04T03:23:48.851Z,98437.19
2019-03-04T03:24:24.367Z,98435.45
2019-03-04T03:25:00.716Z,98431.77
2019-03-04T03:25:36.173Z,98427.50
2019-03-04T03:26:11.573Z,98429.83
2019-03-04T03:26:46.983Z,98423.53
2019-03-04T03:27:22.393Z,98418.72
2019-03-04T03:27:58.059Z,98417.70
2019-03-04T03:28:34.087Z,98419.59
2019-03-04T03:29:09.514Z,98420.25
2019-03-04T03:29:44.893Z,98419.75
2019-03-04T03:30:20.321Z,98419.26
2019-03-04T03:30:55.726Z,98426.75
2019-03-04T03:31:31.132Z,98427.52
2019-03-04T03:32:07.122Z,98429.23
2019-03-04T03:32:42.513Z,98434.78
2019-03-04T03:33:17.891Z,98436.80
2019-03-04T03:33:53.576Z,98449.33
2019-03-04T03:34:28.984Z,98449.33
2019-03-04T03:35:08.089Z,98443.74
2019-03-04T03:35:41.576Z,98445.14
2019-03-04T03:36:16.968Z,98445.61
2019-03-04T03:36:52.387Z,98442.09
2019-03-04T03:37:28.149Z,98435.14
2019-03-04T03:38:03.518Z,98435.14
2019-03-04T03:38:38.914Z,98448.92
2019-03-04T03:39:14.539Z,98447.39
2019-03-04T03:39:49.920Z,98444.08
2019-03-04T03:40:25.617Z,98445.81
2019-03-04T03:41:01.016Z,98439.33
2019-03-04T03:41:36.457Z,98438.89
2019-03-04T03:42:11.891Z,98438.38
2019-03-04T03:42:47.875Z,98434.26
2019-03-04T03:43:23.571Z,98434.26
2019-03-04T03:43:58.961Z,98437.98
2019-03-04T03:44:34.562Z,98437.98
2019-03-04T03:45:10.162Z,98438.22
2019-03-04T03:45:45.531Z,98438.22
2019-03-04T03:46:20.931Z,98440.73
2019-03-04T03:46:56.585Z,98435.73
2019-03-04T03:47:32.155Z,98435.73
2019-03-04T03:48:07.568Z,98442.11
2019-03-04T03:48:43.241Z,98435.50
2019-03-04T03:49:18.619Z,98426.28
2019-03-04T03:49:54.030Z,98428.97
2019-03-04T03:50:29.469Z,98424.23
2019-03-04T03:51:05.199Z,98430.33
2019-03-04T03:51:40.588Z,98429.13
2019-03-04T03:52:16.279Z,98427.03
2019-03-04T03:52:51.944Z,98427.03
2019-03-04T03:53:27.355Z,98426.54
2019-03-04T03:54:02.781Z,98432.94
2019-03-04T03:54:38.208Z,98432.94
2019-03-04T03:55:13.854Z,98425.25
2019-03-04T03:55:49.558Z,98424.83
2019-03-04T03:56:24.968Z,98424.83
2019-03-04T03:57:00.399Z,98422.05
2019-03-04T03:57:35.842Z,98418.45
2019-03-04T03:58:11.219Z,98428.48
2019-03-04T03:58:46.613Z,98419.41
2019-03-04T03:59:22.111Z,98417.44
2019-03-04T03:59:57.762Z,98409.54
2019-03-04T04:00:33.183Z,98409.54
2019-03-04T04:01:08.593Z,98403.71
2019-03-04T04:01:43.993Z,98405.86
2019-03-04T04:02:19.412Z,98394.16
2019-03-04T04:02:54.793Z,98414.36
2019-03-04T04:03:30.471Z,98419.75
2019-03-04T04:04:06.252Z,98419.75
2019-03-04T04:04:41.639Z,98415.29
2019-03-04T04:05:17.138Z,98402.59
2019-03-04T04:05:52.825Z,98402.59
2019-03-04T04:06:28.347Z,98403.19
2019-03-04T04:07:03.772Z,98418.14
2019-03-04T04:07:39.519Z,98420.58
2019-03-04T04:08:15.092Z,98429.23
2019-03-04T04:08:50.503Z,98430.81
2019-03-04T04:09:26.287Z,98424.16
2019-03-04T04:10:01.799Z,98435.25
2019-03-04T04:10:37.205Z,98433.81
2019-03-04T04:11:12.600Z,98440.48
2019-03-04T04:11:48.008Z,98448.48
2019-03-04T04:12:23.419Z,98448.48
2019-03-04T04:12:58.829Z,98443.43
2019-03-04T04:13:34.325Z,98443.43
2019-03-04T04:14:10.027Z,98443.98
2019-03-04T04:14:45.430Z,98440.68
2019-03-04T04:15:21.402Z,98449.52
2019-03-04T04:15:57.042Z,98439.94
2019-03-04T04:16:32.510Z,98434.98
2019-03-04T04:17:08.241Z,98431.28
2019-03-04T04:17:43.669Z,98436.67
2019-03-04T04:18:19.065Z,98433.13
2019-03-04T04:18:54.779Z,98434.73
2019-03-04T04:19:30.205Z,98434.73
2019-03-04T04:20:06.135Z,98444.63
2019-03-04T04:20:41.543Z,98447.31
2019-03-04T04:21:17.177Z,98438.84
2019-03-04T04:21:52.565Z,98444.89
2019-03-04T04:22:28.049Z,98445.09
2019-03-04T04:23:03.842Z,98437.69
2019-03-04T04:23:39.492Z,98438.22
2019-03-04T04:24:15.194Z,98434.08
2019-03-04T04:24:50.987Z,98437.57
2019-03-04T04:25:26.382Z,98431.38
2019-03-04T04:26:02.066Z,98428.41
2019-03-04T04:26:37.557Z,98431.43
2019-03-04T04:27:12.942Z,98423.40
2019-03-04T04:27:48.382Z,98429.14
2019-03-04T04:28:23.788Z,98426.89
2019-03-04T04:29:06.643Z,98436.32
2019-03-04T04:29:42.329Z,98420.41
2019-03-04T04:30:19.194Z,98421.73
2019-03-04T04:30:54.578Z,98431.43
2019-03-04T04:31:30.366Z,98417.28
2019-03-04T04:32:05.928Z,98406.43
2019-03-04T04:32:41.349Z,98416.03
2019-03-04T04:33:16.746Z,98416.20
2019-03-04T04:33:52.135Z,98409.56
2019-03-04T04:34:28.170Z,98407.20
2019-03-04T04:35:03.903Z,98408.55
2019-03-04T04:35:39.614Z,98399.38
2019-03-04T04:36:14.961Z,98403.45
2019-03-04T04:36:50.351Z,98392.77
2019-03-04T04:37:25.749Z,98399.69
2019-03-04T04:38:01.274Z,98402.28
2019-03-04T04:38:36.754Z,98400.86
2019-03-04T04:39:12.150Z,98400.30
2019-03-04T04:39:47.799Z,98387.45
2019-03-04T04:40:23.468Z,98395.59
2019-03-04T04:40:58.900Z,98388.97
2019-03-04T04:41:34.312Z,98379.64
2019-03-04T04:42:10.064Z,98370.98
2019-03-04T04:42:45.481Z,98362.81
2019-03-04T04:43:20.877Z,98362.48
2019-03-04T04:43:56.565Z,98354.23
2019-03-04T04:44:32.384Z,98351.46
2019-03-04T04:45:08.045Z,98354.98
2019-03-04T04:45:43.461Z,98355.64
2019-03-04T04:46:29.951Z,98347.78
2019-03-04T04:47:08.722Z,98340.45
2019-03-04T04:47:44.130Z,98349.16
2019-03-04T04:48:19.533Z,98351.07
2019-03-04T04:48:54.924Z,98346.72
2019-03-04T04:49:32.021Z,98354.26
2019-03-04T04:50:09.002Z,98349.23
2019-03-04T04:50:44.412Z,98341.76
2019-03-04T04:51:20.055Z,98348.33
2019-03-04T04:51:55.691Z,98345.17
2019-03-04T04:52:31.778Z,98348.63
2019-03-04T04:53:07.246Z,98345.33
2019-03-04T04:53:42.891Z,98347.24
2019-03-04T04:54:18.271Z,98350.41
2019-03-04T04:54:53.664Z,98348.07
2019-03-04T04:55:29.110Z,98341.59
2019-03-04T04:56:04.922Z,98346.31
2019-03-04T04:56:40.363Z,98345.09
2019-03-04T04:57:16.298Z,98341.49
2019-03-04T04:57:52.105Z,98335.34
2019-03-04T04:58:27.832Z,98337.94
2019-03-04T04:59:03.586Z,98342.89
2019-03-04T04:59:38.999Z,98348.75
2019-03-04T05:00:14.830Z,98339.31
2019-03-04T05:00:50.217Z,98348.66
2019-03-04T05:01:25.721Z,98354.08
2019-03-04T05:02:01.175Z,98340.99
2019-03-04T05:02:36.645Z,98335.12
2019-03-04T05:03:12.078Z,98340.66
2019-03-04T05:03:47.481Z,98339.13
2019-03-04T05:04:23.129Z,98334.66
2019-03-04T05:04:58.887Z,98332.63
2019-03-04T05:05:34.588Z,98324.14
2019-03-04T05:06:10.017Z,98320.98
2019-03-04T05:06:45.732Z,98315.81
2019-03-04T05:07:21.111Z,98310.16
2019-03-04T05:07:56.533Z,98298.70
2019-03-04T05:08:32.000Z,98298.70
2019-03-04T05:09:08.287Z,98292.60
2019-03-04T05:09:43.720Z,98295.33
2019-03-04T05:10:19.175Z,98298.02
2019-03-04T05:10:54.834Z,98313.12
2019-03-04T05:11:30.338Z,98312.86
2019-03-04T05:12:05.776Z,98312.86
2019-03-04T05:12:41.436Z,98311.91
2019-03-04T05:13:16.963Z,98308.87
2019-03-04T05:13:52.403Z,98308.87
2019-03-04T05:14:28.057Z,98317.81
2019-03-04T05:15:03.486Z,98314.29
2019-03-04T05:15:39.531Z,98313.93
2019-03-04T05:16:14.920Z,98309.17
2019-03-04T05:16:50.546Z,98311.20
2019-03-04T05:17:26.187Z,98301.44
2019-03-04T05:18:02.027Z,98306.27
2019-03-04T05:18:37.477Z,98297.67
2019-03-04T05:19:12.877Z,98305.09
2019-03-04T05:19:48.540Z,98311.45
2019-03-04T05:20:24.222Z,98313.10
2019-03-04T05:20:59.616Z,98310.61
2019-03-04T05:21:35.397Z,98304.24
2019-03-04T05:22:10.788Z,98298.11
2019-03-04T05:22:46.178Z,98305.64
2019-03-04T05:23:21.676Z,98295.05
2019-03-04T05:23:57.361Z,98302.13
2019-03-04T05:24:33.513Z,98297.18
2019-03-04T05:25:09.065Z,98297.75
2019-03-04T05:25:44.490Z,98289.96
2019-03-04T05:26:19.898Z,98292.27
2019-03-04T05:26:55.828Z,98279.52
2019-03-04T05:27:31.350Z,98276.30
2019-03-04T05:28:07.351Z,98267.60
2019-03-04T05:28:43.030Z,98234.75
2019-03-04T05:29:18.427Z,98234.14
2019-03-04T05:29:54.064Z,98242.05
2019-03-04T05:30:29.815Z,98225.95
2019-03-04T05:31:05.358Z,98219.01
2019-03-04T05:31:40.839Z,98213.12
2019-03-04T05:32:16.521Z,98207.00
2019-03-04T05:32:52.184Z,98207.94
2019-03-04T05:33:28.174Z,98199.80
2019-03-04T05:34:03.983Z,98202.97
2019-03-04T05:34:39.422Z,98205.09
2019-03-04T05:35:15.100Z,98208.03
2019-03-04T05:35:50.770Z,98206.73
2019-03-04T05:36:26.177Z,98200.05
2019-03-04T05:37:02.374Z,98203.13
2019-03-04T05:37:37.824Z,98198.66
2019-03-04T05:38:13.518Z,98202.08
2019-03-04T05:38:48.932Z,98196.90
2019-03-04T05:39:24.324Z,98205.49
2019-03-04T05:39:59.751Z,98183.47
2019-03-04T05:40:35.207Z,98179.59
2019-03-04T05:41:10.594Z,98179.45
2019-03-04T05:41:46.279Z,98184.05
2019-03-04T05:42:21.676Z,98187.93
2019-03-04T05:42:57.112Z,98178.86
2019-03-04T05:43:32.836Z,98180.84
2019-03-04T05:44:08.783Z,98183.91
2019-03-04T05:44:44.183Z,98168.14
2019-03-04T05:45:19.632Z,98162.03
2019-03-04T05:45:55.532Z,98175.30
2019-03-04T05:46:31.037Z,98181.56
2019-03-04T05:47:06.469Z,98172.25
2019-03-04T05:47:41.851Z,98166.96
2019-03-04T05:48:17.526Z,98164.48
2019-03-04T05:48:53.246Z,98164.27
2019-03-04T05:49:28.943Z,98155.41
2019-03-04T05:50:06.588Z,98154.63
2019-03-04T05:50:42.004Z,98154.84
2019-03-04T05:51:17.391Z,98156.49
2019-03-04T05:51:53.055Z,98155.67
2019-03-04T05:52:28.516Z,98156.13
2019-03-04T05:53:04.327Z,98159.80
2019-03-04T05:53:40.026Z,98184.52
2019-03-04T05:54:15.702Z,98194.89
2019-03-04T05:54:51.387Z,98184.52
2019-03-04T05:55:26.789Z,98184.98
2019-03-04T05:56:02.234Z,98182.98
2019-03-04T05:56:37.650Z,98173.69
2019-03-04T05:57:13.056Z,98158.50
2019-03-04T05:57:48.454Z,98169.23
2019-03-04T05:58:23.863Z,98168.52
2019-03-04T05:58:59.569Z,98162.61
2019-03-04T05:59:35.278Z,98172.65
2019-03-04T06:00:16.240Z,98171.72
2019-03-04T06:01:15.346Z,98162.75
2019-03-04T06:02:21.688Z,98161.46
2019-03-04T06:02:57.274Z,98159.23
2019-03-04T06:03:32.801Z,98165.59
2019-03-04T06:04:09.819Z,98171.86
2019-03-04T06:04:46.493Z,98177.40
2019-03-04T06:05:21.909Z,98187.27
2019-03-04T06:05:57.578Z,98194.31
2019-03-04T06:07:07.633Z,98192.55
2019-03-04T06:07:46.444Z,98186.43
2019-03-04T06:08:22.118Z,98178.19
2019-03-04T06:08:57.791Z,98177.11
2019-03-04T06:09:33.516Z,98179.81
2019-03-04T06:10:11.161Z,98177.47
2019-03-04T06:10:46.804Z,98189.60
2019-03-04T06:11:22.470Z,98192.23
2019-03-04T06:11:58.202Z,98176.18
2019-03-04T06:12:33.647Z,98188.56
2019-03-04T06:13:09.071Z,98186.19
2019-03-04T06:13:44.707Z,98198.45
2019-03-04T06:14:20.356Z,98194.56
2019-03-04T06:14:56.079Z,98194.56
2019-03-04T06:15:31.832Z,98191.51
2019-03-04T06:16:07.287Z,98200.00
2019-03-04T06:16:47.328Z,98190.58
2019-03-04T06:17:20.373Z,98207.41
2019-03-04T06:17:55.775Z,98207.98
2019-03-04T06:18:31.413Z,98200.43
2019-03-04T06:19:07.215Z,98199.14
2019-03-04T06:19:44.075Z,98207.98
2019-03-04T06:20:19.937Z,98214.11
2019-03-04T06:20:55.323Z,98216.91
2019-03-04T06:21:31.073Z,98215.72
2019-03-04T06:22:06.493Z,98222.08
2019-03-04T06:22:41.870Z,98226.34
2019-03-04T06:23:17.299Z,98216.91
2019-03-04T06:23:52.690Z,98221.88
2019-03-04T06:24:28.110Z,98228.61
2019-03-04T06:25:03.566Z,98227.64
2019-03-04T06:25:39.057Z,98239.77
2019-03-04T06:26:14.752Z,98226.34
2019-03-04T06:26:50.122Z,98234.36
2019-03-04T06:27:25.782Z,98238.35
2019-03-04T06:28:01.262Z,98241.20
2019-03-04T06:28:37.038Z,98234.48
2019-03-04T06:29:12.443Z,98246.50
2019-03-04T06:29:48.103Z,98251.32
2019-03-04T06:30:24.742Z,98254.73
2019-03-04T06:31:00.394Z,98257.90
2019-03-04T06:31:35.923Z,98252.13
2019-03-04T06:32:11.335Z,98242.45
2019-03-04T06:32:46.751Z,98237.15
2019-03-04T06:33:22.505Z,98259.17
2019-03-04T06:33:58.165Z,98256.59
2019-03-04T06:34:33.714Z,98268.61
2019-03-04T06:35:09.692Z,98259.08
2019-03-04T06:35:45.108Z,98269.28
2019-03-04T06:36:20.496Z,98266.33
2019-03-04T06:36:55.887Z,98273.98
2019-03-04T06:37:31.379Z,98282.69
2019-03-04T06:38:07.070Z,98285.44
2019-03-04T06:38:42.762Z,98278.35
2019-03-04T06:39:18.680Z,98282.95
2019-03-04T06:39:54.118Z,98295.80
2019-03-04T06:40:29.595Z,98278.70
2019-03-04T06:41:05.091Z,98288.81
2019-03-04T06:41:40.479Z,98278.08
2019-03-04T06:42:15.852Z,98273.36
2019-03-04T06:42:51.255Z,98270.72
2019-03-04T06:43:26.686Z,98276.83
2019-03-04T06:44:02.417Z,98290.61
2019-03-04T06:44:38.190Z,98290.81
2019-03-04T06:45:14.522Z,98287.73
2019-03-04T06:45:49.929Z,98298.07
2019-03-04T06:46:25.342Z,98287.45
2019-03-04T06:47:00.790Z,98295.95
2019-03-04T06:47:36.877Z,98288.47
2019-03-04T06:48:12.581Z,98291.75
2019-03-04T06:48:48.004Z,98299.36
2019-03-04T06:49:24.198Z,98291.93
2019-03-04T06:50:00.368Z,98282.81
2019-03-04T06:50:52.248Z,98277.94
2019-03-04T06:51:32.716Z,98272.24
2019-03-04T06:52:08.135Z,98279.05
2019-03-04T06:52:43.549Z,98274.77
2019-03-04T06:53:58.073Z,98267.27
2019-03-04T06:54:59.214Z,98233.94
2019-03-04T06:56:06.774Z,98214.18
2019-03-04T06:56:54.401Z,98214.18
2019-03-04T06:57:41.658Z,98195.61
2019-03-04T06:58:17.348Z,98201.84
2019-03-04T06:58:57.420Z,98186.81
2019-03-04T07:00:14.747Z,98182.70
2019-03-04T07:00:54.334Z,98213.56
2019-03-04T07:01:34.932Z,98224.20
2019-03-04T07:02:12.386Z,98212.14
2019-03-04T07:02:48.435Z,98194.36
2019-03-04T07:03:38.466Z,98183.78
2019-03-04T07:04:28.328Z,98181.21
2019-03-04T07:05:46.466Z,98166.62